logo
Search for airport 
image banner adimage banner adimage banner ad
image banner ad

VOBR - Bidar/Indian Air Force

Located in Bidar, India

ICAO - VOBR, IATA - IXX

Data provided by Airmate  

General information

Coordinates: N17°54'32" E77°28'55"
Elevation is 2178 feet MSL.
 
View others Airports in Karnataka

Operational data

Special qualification required
Current time UTC:
Current local time:
Weather at : - ( 0 km )
METAR: K2V6 152139Z AUTO 19026G32KT 10SM CLR 28/M20 A2942 RMK AO2
View NOTAMs / SUP AIP / TFR affecting this airport [VIEW]
Communications frequencies: [VIEW]

Runways:

RWY identifierQFULength (ft)Width (ft)SurfaceLDA (ft)
0218°9199148ASP
20198°9199148ASP
0878°8999148ASP
26258°8999148ASP

Airport contact information

Address: Bidar India

Satellite view of VOBR